sensor_id;sensor_type;location;lat;lon;timestamp;P1;durP1;ratioP1;P2;durP2;ratioP2
6987;SDS011;3534;49.960;8.018;2023-05-07T00:01:45;3.93;;;1.60;;
6987;SDS011;3534;49.960;8.018;2023-05-07T00:04:11;2.43;;;1.97;;
6987;SDS011;3534;49.960;8.018;2023-05-07T00:06:39;2.20;;;2.00;;
6987;SDS011;3534;49.960;8.018;2023-05-07T00:09:06;2.83;;;2.27;;
6987;SDS011;3534;49.960;8.018;2023-05-07T00:11:33;3.57;;;1.73;;
6987;SDS011;3534;49.960;8.018;2023-05-07T00:14:00;5.93;;;1.67;;
6987;SDS011;3534;49.960;8.018;2023-05-07T00:16:26;2.10;;;2.00;;
6987;SDS011;3534;49.960;8.018;2023-05-07T00:18:53;1.73;;;1.50;;
6987;SDS011;3534;49.960;8.018;2023-05-07T00:21:20;5.30;;;1.83;;
6987;SDS011;3534;49.960;8.018;2023-05-07T00:23:48;2.27;;;1.80;;
6987;SDS011;3534;49.960;8.018;2023-05-07T00:26:15;2.00;;;1.80;;
6987;SDS011;3534;49.960;8.018;2023-05-07T00:28:42;2.50;;;1.67;;
6987;SDS011;3534;49.960;8.018;2023-05-07T00:31:09;4.63;;;2.13;;
6987;SDS011;3534;49.960;8.018;2023-05-07T00:33:35;9.80;;;1.67;;
6987;SDS011;3534;49.960;8.018;2023-05-07T00:36:02;3.23;;;1.30;;
6987;SDS011;3534;49.960;8.018;2023-05-07T00:38:29;1.73;;;1.40;;
6987;SDS011;3534;49.960;8.018;2023-05-07T00:40:57;3.00;;;1.67;;
6987;SDS011;3534;49.960;8.018;2023-05-07T00:43:24;2.50;;;1.77;;
6987;SDS011;3534;49.960;8.018;2023-05-07T00:45:50;3.53;;;1.53;;
6987;SDS011;3534;49.960;8.018;2023-05-07T00:48:17;1.80;;;1.53;;
6987;SDS011;3534;49.960;8.018;2023-05-07T00:50:44;1.97;;;1.87;;
6987;SDS011;3534;49.960;8.018;2023-05-07T00:53:12;2.20;;;1.80;;
6987;SDS011;3534;49.960;8.018;2023-05-07T00:55:39;2.80;;;2.40;;
6987;SDS011;3534;49.960;8.018;2023-05-07T00:58:07;2.07;;;1.70;;
6987;SDS011;3534;49.960;8.018;2023-05-07T01:00:34;1.90;;;1.67;;
6987;SDS011;3534;49.960;8.018;2023-05-07T01:03:02;4.87;;;2.30;;
6987;SDS011;3534;49.960;8.018;2023-05-07T01:05:29;2.50;;;1.67;;
6987;SDS011;3534;49.960;8.018;2023-05-07T01:07:56;2.03;;;1.83;;
6987;SDS011;3534;49.960;8.018;2023-05-07T01:10:23;2.37;;;2.17;;
6987;SDS011;3534;49.960;8.018;2023-05-07T01:12:50;1.70;;;1.60;;
6987;SDS011;3534;49.960;8.018;2023-05-07T01:15:21;3.87;;;2.20;;
6987;SDS011;3534;49.960;8.018;2023-05-07T01:17:47;4.40;;;2.00;;
6987;SDS011;3534;49.960;8.018;2023-05-07T01:20:14;4.17;;;1.90;;
6987;SDS011;3534;49.960;8.018;2023-05-07T01:22:42;3.73;;;1.83;;
6987;SDS011;3534;49.960;8.018;2023-05-07T01:25:09;2.00;;;1.80;;
6987;SDS011;3534;49.960;8.018;2023-05-07T01:27:36;2.43;;;1.60;;
6987;SDS011;3534;49.960;8.018;2023-05-07T01:30:03;4.13;;;1.70;;
6987;SDS011;3534;49.960;8.018;2023-05-07T01:32:32;2.20;;;1.73;;
6987;SDS011;3534;49.960;8.018;2023-05-07T01:35:02;2.50;;;1.93;;
6987;SDS011;3534;49.960;8.018;2023-05-07T01:37:33;5.20;;;2.30;;
6987;SDS011;3534;49.960;8.018;2023-05-07T01:40:02;4.77;;;2.27;;
6987;SDS011;3534;49.960;8.018;2023-05-07T01:42:29;2.23;;;1.90;;
6987;SDS011;3534;49.960;8.018;2023-05-07T01:44:56;3.33;;;1.73;;
6987;SDS011;3534;49.960;8.018;2023-05-07T01:47:23;3.37;;;1.87;;
6987;SDS011;3534;49.960;8.018;2023-05-07T01:49:51;6.23;;;2.00;;
6987;SDS011;3534;49.960;8.018;2023-05-07T01:52:18;3.43;;;2.13;;
6987;SDS011;3534;49.960;8.018;2023-05-07T01:54:45;4.97;;;2.23;;
6987;SDS011;3534;49.960;8.018;2023-05-07T01:57:13;3.03;;;2.33;;
6987;SDS011;3534;49.960;8.018;2023-05-07T01:59:39;2.33;;;2.13;;
6987;SDS011;3534;49.960;8.018;2023-05-07T02:02:06;4.50;;;2.00;;
6987;SDS011;3534;49.960;8.018;2023-05-07T02:04:33;2.93;;;2.60;;
6987;SDS011;3534;49.960;8.018;2023-05-07T02:07:00;4.00;;;2.50;;
6987;SDS011;3534;49.960;8.018;2023-05-07T02:09:26;2.23;;;2.07;;
6987;SDS011;3534;49.960;8.018;2023-05-07T02:11:53;4.33;;;2.43;;
6987;SDS011;3534;49.960;8.018;2023-05-07T02:14:21;3.63;;;2.13;;
6987;SDS011;3534;49.960;8.018;2023-05-07T02:16:48;2.97;;;2.50;;
6987;SDS011;3534;49.960;8.018;2023-05-07T02:19:14;4.50;;;2.33;;
6987;SDS011;3534;49.960;8.018;2023-05-07T02:21:41;3.63;;;2.20;;
6987;SDS011;3534;49.960;8.018;2023-05-07T02:24:08;2.67;;;2.13;;
6987;SDS011;3534;49.960;8.018;2023-05-07T02:26:34;3.03;;;2.73;;
6987;SDS011;3534;49.960;8.018;2023-05-07T02:29:01;2.37;;;2.17;;
6987;SDS011;3534;49.960;8.018;2023-05-07T02:31:29;3.50;;;2.30;;
6987;SDS011;3534;49.960;8.018;2023-05-07T02:33:56;2.57;;;2.33;;
6987;SDS011;3534;49.960;8.018;2023-05-07T02:36:22;2.53;;;2.33;;
6987;SDS011;3534;49.960;8.018;2023-05-07T02:38:49;3.77;;;2.23;;
6987;SDS011;3534;49.960;8.018;2023-05-07T02:41:16;2.17;;;1.90;;
6987;SDS011;3534;49.960;8.018;2023-05-07T02:43:42;5.43;;;2.67;;
6987;SDS011;3534;49.960;8.018;2023-05-07T02:46:09;2.50;;;2.30;;
6987;SDS011;3534;49.960;8.018;2023-05-07T02:48:37;5.43;;;2.37;;
6987;SDS011;3534;49.960;8.018;2023-05-07T02:51:04;6.53;;;2.37;;
6987;SDS011;3534;49.960;8.018;2023-05-07T02:53:31;2.70;;;2.33;;
6987;SDS011;3534;49.960;8.018;2023-05-07T02:55:58;3.37;;;2.10;;
6987;SDS011;3534;49.960;8.018;2023-05-07T02:58:26;4.60;;;2.10;;
6987;SDS011;3534;49.960;8.018;2023-05-07T03:00:53;3.40;;;2.17;;
6987;SDS011;3534;49.960;8.018;2023-05-07T03:03:20;2.57;;;2.17;;
6987;SDS011;3534;49.960;8.018;2023-05-07T03:05:48;2.60;;;1.97;;
6987;SDS011;3534;49.960;8.018;2023-05-07T03:08:15;3.60;;;2.00;;
6987;SDS011;3534;49.960;8.018;2023-05-07T03:10:41;7.23;;;2.03;;
6987;SDS011;3534;49.960;8.018;2023-05-07T03:13:08;2.33;;;2.07;;
6987;SDS011;3534;49.960;8.018;2023-05-07T03:15:35;3.97;;;2.43;;
6987;SDS011;3534;49.960;8.018;2023-05-07T03:18:02;2.20;;;2.00;;
6987;SDS011;3534;49.960;8.018;2023-05-07T03:20:28;7.90;;;2.43;;
6987;SDS011;3534;49.960;8.018;2023-05-07T03:22:56;2.93;;;2.10;;
6987;SDS011;3534;49.960;8.018;2023-05-07T03:25:23;3.37;;;2.30;;
6987;SDS011;3534;49.960;8.018;2023-05-07T03:27:50;4.93;;;2.50;;
6987;SDS011;3534;49.960;8.018;2023-05-07T03:30:17;3.77;;;2.03;;
6987;SDS011;3534;49.960;8.018;2023-05-07T03:32:43;6.37;;;3.10;;
6987;SDS011;3534;49.960;8.018;2023-05-07T03:35:10;3.73;;;2.30;;
6987;SDS011;3534;49.960;8.018;2023-05-07T03:37:37;2.77;;;2.27;;
6987;SDS011;3534;49.960;8.018;2023-05-07T03:40:06;3.90;;;2.50;;
6987;SDS011;3534;49.960;8.018;2023-05-07T03:42:35;3.73;;;2.93;;
6987;SDS011;3534;49.960;8.018;2023-05-07T03:45:02;2.70;;;2.50;;
6987;SDS011;3534;49.960;8.018;2023-05-07T03:47:29;2.40;;;2.20;;
6987;SDS011;3534;49.960;8.018;2023-05-07T03:49:55;3.73;;;2.00;;
6987;SDS011;3534;49.960;8.018;2023-05-07T03:52:22;2.67;;;2.37;;
6987;SDS011;3534;49.960;8.018;2023-05-07T03:54:51;2.80;;;2.20;;
6987;SDS011;3534;49.960;8.018;2023-05-07T03:57:19;3.23;;;2.10;;
6987;SDS011;3534;49.960;8.018;2023-05-07T03:59:46;2.67;;;2.43;;
6987;SDS011;3534;49.960;8.018;2023-05-07T04:02:13;3.17;;;2.40;;
6987;SDS011;3534;49.960;8.018;2023-05-07T04:04:39;4.97;;;2.30;;
6987;SDS011;3534;49.960;8.018;2023-05-07T04:07:06;5.33;;;2.33;;
6987;SDS011;3534;49.960;8.018;2023-05-07T04:09:33;4.20;;;2.33;;
6987;SDS011;3534;49.960;8.018;2023-05-07T04:12:00;2.57;;;2.37;;
6987;SDS011;3534;49.960;8.018;2023-05-07T04:14:28;3.20;;;1.90;;
6987;SDS011;3534;49.960;8.018;2023-05-07T04:16:57;4.40;;;2.43;;
6987;SDS011;3534;49.960;8.018;2023-05-07T04:19:23;2.97;;;2.13;;
6987;SDS011;3534;49.960;8.018;2023-05-07T04:21:50;3.23;;;2.63;;
6987;SDS011;3534;49.960;8.018;2023-05-07T04:24:17;5.97;;;2.67;;
6987;SDS011;3534;49.960;8.018;2023-05-07T04:26:43;3.87;;;2.43;;
6987;SDS011;3534;49.960;8.018;2023-05-07T04:29:10;2.60;;;2.37;;
6987;SDS011;3534;49.960;8.018;2023-05-07T04:31:38;3.47;;;2.33;;
6987;SDS011;3534;49.960;8.018;2023-05-07T04:34:05;3.83;;;2.57;;
6987;SDS011;3534;49.960;8.018;2023-05-07T04:36:32;3.80;;;2.53;;
6987;SDS011;3534;49.960;8.018;2023-05-07T04:38:59;2.40;;;2.20;;
6987;SDS011;3534;49.960;8.018;2023-05-07T04:41:25;2.03;;;1.83;;
6987;SDS011;3534;49.960;8.018;2023-05-07T04:43:52;2.77;;;2.13;;
6987;SDS011;3534;49.960;8.018;2023-05-07T04:46:19;4.13;;;2.67;;
6987;SDS011;3534;49.960;8.018;2023-05-07T04:48:47;3.47;;;1.97;;
6987;SDS011;3534;49.960;8.018;2023-05-07T04:51:14;1.97;;;1.87;;
6987;SDS011;3534;49.960;8.018;2023-05-07T04:53:40;3.80;;;2.37;;
6987;SDS011;3534;49.960;8.018;2023-05-07T04:56:08;2.20;;;2.00;;
6987;SDS011;3534;49.960;8.018;2023-05-07T04:58:35;2.37;;;2.03;;
6987;SDS011;3534;49.960;8.018;2023-05-07T05:01:01;2.90;;;2.67;;
6987;SDS011;3534;49.960;8.018;2023-05-07T05:03:28;6.17;;;2.37;;
6987;SDS011;3534;49.960;8.018;2023-05-07T05:05:57;1.97;;;1.80;;
6987;SDS011;3534;49.960;8.018;2023-05-07T05:08:24;2.40;;;2.17;;
6987;SDS011;3534;49.960;8.018;2023-05-07T05:10:51;10.97;;;2.10;;
6987;SDS011;3534;49.960;8.018;2023-05-07T05:13:18;2.90;;;2.20;;
6987;SDS011;3534;49.960;8.018;2023-05-07T05:15:45;8.07;;;2.03;;
6987;SDS011;3534;49.960;8.018;2023-05-07T05:18:12;3.03;;;2.33;;
6987;SDS011;3534;49.960;8.018;2023-05-07T05:20:38;3.67;;;2.70;;
6987;SDS011;3534;49.960;8.018;2023-05-07T05:23:07;2.30;;;2.10;;
6987;SDS011;3534;49.960;8.018;2023-05-07T05:25:34;3.93;;;1.60;;
6987;SDS011;3534;49.960;8.018;2023-05-07T05:28:02;4.80;;;2.47;;
6987;SDS011;3534;49.960;8.018;2023-05-07T05:30:29;4.27;;;2.17;;
6987;SDS011;3534;49.960;8.018;2023-05-07T05:32:55;2.90;;;2.40;;
6987;SDS011;3534;49.960;8.018;2023-05-07T05:35:22;4.97;;;2.53;;
6987;SDS011;3534;49.960;8.018;2023-05-07T05:37:49;3.73;;;2.87;;
6987;SDS011;3534;49.960;8.018;2023-05-07T05:40:17;4.40;;;2.50;;
6987;SDS011;3534;49.960;8.018;2023-05-07T05:42:44;2.30;;;1.90;;
6987;SDS011;3534;49.960;8.018;2023-05-07T05:45:10;3.77;;;1.67;;
6987;SDS011;3534;49.960;8.018;2023-05-07T05:47:37;2.40;;;2.20;;
6987;SDS011;3534;49.960;8.018;2023-05-07T05:50:05;2.40;;;2.20;;
6987;SDS011;3534;49.960;8.018;2023-05-07T05:52:32;3.03;;;2.37;;
6987;SDS011;3534;49.960;8.018;2023-05-07T05:54:59;5.37;;;2.17;;
6987;SDS011;3534;49.960;8.018;2023-05-07T05:57:27;2.90;;;2.37;;
6987;SDS011;3534;49.960;8.018;2023-05-07T05:59:54;5.47;;;2.47;;
6987;SDS011;3534;49.960;8.018;2023-05-07T06:02:21;2.43;;;2.10;;
6987;SDS011;3534;49.960;8.018;2023-05-07T06:04:47;8.00;;;3.10;;
6987;SDS011;3534;49.960;8.018;2023-05-07T06:07:14;2.23;;;2.03;;
6987;SDS011;3534;49.960;8.018;2023-05-07T06:09:41;2.53;;;2.30;;
6987;SDS011;3534;49.960;8.018;2023-05-07T06:12:07;3.87;;;2.47;;
6987;SDS011;3534;49.960;8.018;2023-05-07T06:14:35;2.23;;;2.10;;
6987;SDS011;3534;49.960;8.018;2023-05-07T06:17:02;5.07;;;2.40;;
6987;SDS011;3534;49.960;8.018;2023-05-07T06:19:29;2.80;;;1.77;;
6987;SDS011;3534;49.960;8.018;2023-05-07T06:21:56;5.23;;;2.10;;
6987;SDS011;3534;49.960;8.018;2023-05-07T06:24:22;3.37;;;2.50;;
6987;SDS011;3534;49.960;8.018;2023-05-07T06:26:50;2.00;;;1.80;;
6987;SDS011;3534;49.960;8.018;2023-05-07T06:29:16;2.03;;;1.83;;
6987;SDS011;3534;49.960;8.018;2023-05-07T06:31:44;6.03;;;2.43;;
6987;SDS011;3534;49.960;8.018;2023-05-07T06:34:11;2.63;;;1.87;;
6987;SDS011;3534;49.960;8.018;2023-05-07T06:36:40;2.23;;;2.03;;
6987;SDS011;3534;49.960;8.018;2023-05-07T06:39:06;5.07;;;2.03;;
6987;SDS011;3534;49.960;8.018;2023-05-07T06:41:33;3.90;;;2.70;;
6987;SDS011;3534;49.960;8.018;2023-05-07T06:44:00;4.37;;;2.33;;
6987;SDS011;3534;49.960;8.018;2023-05-07T06:46:27;2.47;;;2.00;;
6987;SDS011;3534;49.960;8.018;2023-05-07T06:48:55;3.07;;;2.20;;
6987;SDS011;3534;49.960;8.018;2023-05-07T06:51:22;2.53;;;2.07;;
6987;SDS011;3534;49.960;8.018;2023-05-07T06:53:49;5.80;;;1.97;;
6987;SDS011;3534;49.960;8.018;2023-05-07T06:56:16;4.00;;;2.10;;
6987;SDS011;3534;49.960;8.018;2023-05-07T06:58:42;2.10;;;1.90;;
6987;SDS011;3534;49.960;8.018;2023-05-07T07:01:09;4.40;;;2.40;;
6987;SDS011;3534;49.960;8.018;2023-05-07T07:03:36;3.10;;;2.20;;
6987;SDS011;3534;49.960;8.018;2023-05-07T07:06:04;4.63;;;2.20;;
6987;SDS011;3534;49.960;8.018;2023-05-07T07:08:31;2.17;;;2.07;;
6987;SDS011;3534;49.960;8.018;2023-05-07T07:10:58;4.07;;;2.47;;
6987;SDS011;3534;49.960;8.018;2023-05-07T07:13:24;4.40;;;3.00;;
6987;SDS011;3534;49.960;8.018;2023-05-07T07:15:51;4.33;;;2.03;;
6987;SDS011;3534;49.960;8.018;2023-05-07T07:18:18;4.17;;;2.13;;
6987;SDS011;3534;49.960;8.018;2023-05-07T07:20:45;2.17;;;1.97;;
6987;SDS011;3534;49.960;8.018;2023-05-07T07:23:13;1.97;;;1.60;;
6987;SDS011;3534;49.960;8.018;2023-05-07T07:25:40;2.40;;;2.20;;
6987;SDS011;3534;49.960;8.018;2023-05-07T07:28:07;4.30;;;2.30;;
6987;SDS011;3534;49.960;8.018;2023-05-07T07:30:34;4.97;;;2.27;;
6987;SDS011;3534;49.960;8.018;2023-05-07T07:33:00;2.67;;;2.00;;
6987;SDS011;3534;49.960;8.018;2023-05-07T07:35:28;3.20;;;2.40;;
6987;SDS011;3534;49.960;8.018;2023-05-07T07:37:55;2.87;;;2.67;;
6987;SDS011;3534;49.960;8.018;2023-05-07T07:40:23;2.40;;;2.00;;
6987;SDS011;3534;49.960;8.018;2023-05-07T07:42:50;2.57;;;2.37;;
6987;SDS011;3534;49.960;8.018;2023-05-07T07:45:16;3.83;;;2.47;;
6987;SDS011;3534;49.960;8.018;2023-05-07T07:47:43;6.17;;;2.67;;
6987;SDS011;3534;49.960;8.018;2023-05-07T07:50:10;3.90;;;2.10;;
6987;SDS011;3534;49.960;8.018;2023-05-07T07:52:37;2.43;;;2.20;;
6987;SDS011;3534;49.960;8.018;2023-05-07T07:55:04;6.33;;;2.40;;
6987;SDS011;3534;49.960;8.018;2023-05-07T07:57:33;2.30;;;2.07;;
6987;SDS011;3534;49.960;8.018;2023-05-07T08:00:00;3.00;;;1.80;;
6987;SDS011;3534;49.960;8.018;2023-05-07T08:02:27;3.10;;;2.60;;
6987;SDS011;3534;49.960;8.018;2023-05-07T08:04:54;3.20;;;2.33;;
6987;SDS011;3534;49.960;8.018;2023-05-07T08:07:21;7.37;;;2.77;;
6987;SDS011;3534;49.960;8.018;2023-05-07T08:09:47;3.27;;;2.37;;
6987;SDS011;3534;49.960;8.018;2023-05-07T08:12:14;2.90;;;2.70;;
6987;SDS011;3534;49.960;8.018;2023-05-07T08:14:42;2.50;;;2.10;;
6987;SDS011;3534;49.960;8.018;2023-05-07T08:17:09;3.00;;;2.60;;
6987;SDS011;3534;49.960;8.018;2023-05-07T08:19:36;2.10;;;2.00;;
6987;SDS011;3534;49.960;8.018;2023-05-07T08:22:03;4.53;;;3.03;;
6987;SDS011;3534;49.960;8.018;2023-05-07T08:24:30;4.17;;;2.47;;
6987;SDS011;3534;49.960;8.018;2023-05-07T08:26:57;3.17;;;2.37;;
6987;SDS011;3534;49.960;8.018;2023-05-07T08:29:24;6.10;;;2.47;;
6987;SDS011;3534;49.960;8.018;2023-05-07T08:31:52;3.30;;;2.70;;
6987;SDS011;3534;49.960;8.018;2023-05-07T08:34:19;2.87;;;2.53;;
6987;SDS011;3534;49.960;8.018;2023-05-07T08:36:45;4.73;;;2.67;;
6987;SDS011;3534;49.960;8.018;2023-05-07T08:39:13;3.93;;;2.87;;
6987;SDS011;3534;49.960;8.018;2023-05-07T08:41:41;3.27;;;2.40;;
6987;SDS011;3534;49.960;8.018;2023-05-07T08:44:12;4.03;;;2.87;;
6987;SDS011;3534;49.960;8.018;2023-05-07T08:46:39;3.30;;;3.00;;
6987;SDS011;3534;49.960;8.018;2023-05-07T08:49:09;2.90;;;2.60;;
6987;SDS011;3534;49.960;8.018;2023-05-07T08:51:36;3.10;;;2.80;;
6987;SDS011;3534;49.960;8.018;2023-05-07T08:54:03;3.40;;;2.67;;
6987;SDS011;3534;49.960;8.018;2023-05-07T08:56:31;4.77;;;2.13;;
6987;SDS011;3534;49.960;8.018;2023-05-07T08:58:58;4.83;;;2.50;;
6987;SDS011;3534;49.960;8.018;2023-05-07T09:01:25;3.03;;;2.73;;
6987;SDS011;3534;49.960;8.018;2023-05-07T09:03:52;2.90;;;2.50;;
6987;SDS011;3534;49.960;8.018;2023-05-07T09:06:20;3.97;;;3.00;;
6987;SDS011;3534;49.960;8.018;2023-05-07T09:08:51;4.20;;;2.57;;
6987;SDS011;3534;49.960;8.018;2023-05-07T09:11:21;2.87;;;2.53;;
6987;SDS011;3534;49.960;8.018;2023-05-07T09:13:48;3.10;;;2.43;;
6987;SDS011;3534;49.960;8.018;2023-05-07T09:16:20;6.90;;;2.37;;
6987;SDS011;3534;49.960;8.018;2023-05-07T09:18:48;2.70;;;2.50;;
6987;SDS011;3534;49.960;8.018;2023-05-07T09:21:17;3.60;;;3.17;;
6987;SDS011;3534;49.960;8.018;2023-05-07T09:23:46;2.87;;;2.57;;
6987;SDS011;3534;49.960;8.018;2023-05-07T09:26:14;4.80;;;2.90;;
6987;SDS011;3534;49.960;8.018;2023-05-07T09:28:41;3.23;;;2.37;;
6987;SDS011;3534;49.960;8.018;2023-05-07T09:31:08;3.13;;;2.83;;
6987;SDS011;3534;49.960;8.018;2023-05-07T09:33:35;5.03;;;2.90;;
6987;SDS011;3534;49.960;8.018;2023-05-07T09:36:03;3.90;;;2.80;;
6987;SDS011;3534;49.960;8.018;2023-05-07T09:38:30;4.97;;;2.63;;
6987;SDS011;3534;49.960;8.018;2023-05-07T09:41:02;4.30;;;3.10;;
6987;SDS011;3534;49.960;8.018;2023-05-07T09:43:31;6.67;;;3.07;;
6987;SDS011;3534;49.960;8.018;2023-05-07T09:45:59;3.20;;;3.00;;
6987;SDS011;3534;49.960;8.018;2023-05-07T09:48:29;4.33;;;2.80;;
6987;SDS011;3534;49.960;8.018;2023-05-07T09:50:57;3.43;;;3.00;;
6987;SDS011;3534;49.960;8.018;2023-05-07T09:53:29;4.17;;;2.77;;
6987;SDS011;3534;49.960;8.018;2023-05-07T09:55:57;4.00;;;3.07;;
6987;SDS011;3534;49.960;8.018;2023-05-07T09:58:25;3.53;;;2.87;;
6987;SDS011;3534;49.960;8.018;2023-05-07T10:00:52;3.13;;;2.83;;
6987;SDS011;3534;49.960;8.018;2023-05-07T10:03:20;4.20;;;2.80;;
6987;SDS011;3534;49.960;8.018;2023-05-07T10:05:49;4.90;;;2.60;;
6987;SDS011;3534;49.960;8.018;2023-05-07T10:08:17;3.17;;;2.80;;
6987;SDS011;3534;49.960;8.018;2023-05-07T10:10:45;2.97;;;2.67;;
6987;SDS011;3534;49.960;8.018;2023-05-07T10:13:12;4.20;;;3.10;;
6987;SDS011;3534;49.960;8.018;2023-05-07T10:15:40;3.70;;;3.33;;
6987;SDS011;3534;49.960;8.018;2023-05-07T10:18:07;4.97;;;3.60;;
6987;SDS011;3534;49.960;8.018;2023-05-07T10:20:34;3.20;;;2.90;;
6987;SDS011;3534;49.960;8.018;2023-05-07T10:23:03;3.90;;;2.87;;
6987;SDS011;3534;49.960;8.018;2023-05-07T10:25:31;6.03;;;2.90;;
6987;SDS011;3534;49.960;8.018;2023-05-07T10:27:59;3.37;;;3.00;;
6987;SDS011;3534;49.960;8.018;2023-05-07T10:30:33;3.63;;;2.90;;
6987;SDS011;3534;49.960;8.018;2023-05-07T10:33:08;12.53;;;3.20;;
6987;SDS011;3534;49.960;8.018;2023-05-07T10:35:38;5.53;;;3.57;;
6987;SDS011;3534;49.960;8.018;2023-05-07T10:38:07;4.13;;;2.90;;
6987;SDS011;3534;49.960;8.018;2023-05-07T10:40:35;2.80;;;2.60;;
6987;SDS011;3534;49.960;8.018;2023-05-07T10:43:02;4.43;;;2.53;;
6987;SDS011;3534;49.960;8.018;2023-05-07T10:45:30;4.97;;;2.93;;
6987;SDS011;3534;49.960;8.018;2023-05-07T10:48:12;4.70;;;3.00;;
6987;SDS011;3534;49.960;8.018;2023-05-07T10:50:40;2.80;;;2.47;;
6987;SDS011;3534;49.960;8.018;2023-05-07T10:53:23;3.70;;;2.70;;
6987;SDS011;3534;49.960;8.018;2023-05-07T10:55:52;5.10;;;2.80;;
6987;SDS011;3534;49.960;8.018;2023-05-07T10:58:52;4.30;;;2.87;;
6987;SDS011;3534;49.960;8.018;2023-05-07T11:04:21;3.50;;;3.20;;
6987;SDS011;3534;49.960;8.018;2023-05-07T11:09:59;3.93;;;3.53;;
6987;SDS011;3534;49.960;8.018;2023-05-07T11:12:48;3.27;;;2.37;;
6987;SDS011;3534;49.960;8.018;2023-05-07T11:18:02;4.50;;;3.00;;
6987;SDS011;3534;49.960;8.018;2023-05-07T11:20:47;5.00;;;3.00;;
6987;SDS011;3534;49.960;8.018;2023-05-07T11:26:26;5.40;;;2.67;;
6987;SDS011;3534;49.960;8.018;2023-05-07T11:28:55;3.63;;;2.80;;
6987;SDS011;3534;49.960;8.018;2023-05-07T11:31:22;9.13;;;3.27;;
6987;SDS011;3534;49.960;8.018;2023-05-07T11:33:51;4.83;;;3.30;;
6987;SDS011;3534;49.960;8.018;2023-05-07T11:36:20;4.53;;;3.40;;
6987;SDS011;3534;49.960;8.018;2023-05-07T11:38:48;4.40;;;3.40;;
6987;SDS011;3534;49.960;8.018;2023-05-07T11:41:15;3.60;;;2.77;;
6987;SDS011;3534;49.960;8.018;2023-05-07T11:43:54;2.80;;;2.30;;
6987;SDS011;3534;49.960;8.018;2023-05-07T11:46:22;3.60;;;2.70;;
6987;SDS011;3534;49.960;8.018;2023-05-07T11:48:49;2.80;;;2.60;;
6987;SDS011;3534;49.960;8.018;2023-05-07T11:51:19;4.50;;;3.20;;
6987;SDS011;3534;49.960;8.018;2023-05-07T11:53:47;4.07;;;3.10;;
6987;SDS011;3534;49.960;8.018;2023-05-07T11:56:14;6.70;;;3.10;;
6987;SDS011;3534;49.960;8.018;2023-05-07T11:58:43;3.50;;;2.93;;
6987;SDS011;3534;49.960;8.018;2023-05-07T12:01:11;3.23;;;2.70;;
6987;SDS011;3534;49.960;8.018;2023-05-07T12:03:40;3.30;;;2.40;;
6987;SDS011;3534;49.960;8.018;2023-05-07T12:06:08;2.63;;;2.43;;
6987;SDS011;3534;49.960;8.018;2023-05-07T12:08:37;5.73;;;2.90;;
6987;SDS011;3534;49.960;8.018;2023-05-07T12:11:07;3.63;;;3.00;;
6987;SDS011;3534;49.960;8.018;2023-05-07T12:13:36;4.00;;;2.63;;
6987;SDS011;3534;49.960;8.018;2023-05-07T12:16:03;3.03;;;2.07;;
6987;SDS011;3534;49.960;8.018;2023-05-07T12:18:31;2.93;;;2.63;;
6987;SDS011;3534;49.960;8.018;2023-05-07T12:20:59;2.87;;;2.33;;
6987;SDS011;3534;49.960;8.018;2023-05-07T12:23:26;4.00;;;2.93;;
6987;SDS011;3534;49.960;8.018;2023-05-07T12:25:54;3.30;;;2.80;;
6987;SDS011;3534;49.960;8.018;2023-05-07T12:28:21;3.67;;;2.70;;
6987;SDS011;3534;49.960;8.018;2023-05-07T12:30:48;2.90;;;2.70;;
6987;SDS011;3534;49.960;8.018;2023-05-07T12:33:16;4.87;;;2.67;;
6987;SDS011;3534;49.960;8.018;2023-05-07T12:35:46;4.50;;;2.70;;
6987;SDS011;3534;49.960;8.018;2023-05-07T12:38:14;6.70;;;2.50;;
6987;SDS011;3534;49.960;8.018;2023-05-07T12:40:43;3.10;;;2.40;;
6987;SDS011;3534;49.960;8.018;2023-05-07T12:43:16;4.00;;;2.60;;
6987;SDS011;3534;49.960;8.018;2023-05-07T12:45:43;3.10;;;2.30;;
6987;SDS011;3534;49.960;8.018;2023-05-07T12:48:11;2.20;;;2.00;;
6987;SDS011;3534;49.960;8.018;2023-05-07T12:50:38;2.70;;;2.50;;
6987;SDS011;3534;49.960;8.018;2023-05-07T12:53:05;3.50;;;2.33;;
6987;SDS011;3534;49.960;8.018;2023-05-07T12:55:40;2.73;;;2.07;;
6987;SDS011;3534;49.960;8.018;2023-05-07T12:58:08;3.27;;;2.07;;
6987;SDS011;3534;49.960;8.018;2023-05-07T13:00:43;2.47;;;2.27;;
6987;SDS011;3534;49.960;8.018;2023-05-07T13:03:10;2.50;;;2.30;;
6987;SDS011;3534;49.960;8.018;2023-05-07T13:05:37;2.17;;;1.90;;
6987;SDS011;3534;49.960;8.018;2023-05-07T13:08:05;3.27;;;2.00;;
6987;SDS011;3534;49.960;8.018;2023-05-07T13:10:31;2.13;;;1.93;;
6987;SDS011;3534;49.960;8.018;2023-05-07T13:12:59;3.70;;;2.53;;
6987;SDS011;3534;49.960;8.018;2023-05-07T13:15:27;3.83;;;2.40;;
6987;SDS011;3534;49.960;8.018;2023-05-07T13:17:53;2.40;;;2.20;;
6987;SDS011;3534;49.960;8.018;2023-05-07T13:20:20;2.77;;;2.20;;
6987;SDS011;3534;49.960;8.018;2023-05-07T13:22:47;2.47;;;2.27;;
6987;SDS011;3534;49.960;8.018;2023-05-07T13:25:14;3.37;;;2.47;;
6987;SDS011;3534;49.960;8.018;2023-05-07T13:27:41;2.00;;;1.90;;
6987;SDS011;3534;49.960;8.018;2023-05-07T13:30:08;2.50;;;2.27;;
6987;SDS011;3534;49.960;8.018;2023-05-07T13:32:36;2.60;;;1.87;;
6987;SDS011;3534;49.960;8.018;2023-05-07T13:35:03;2.10;;;1.90;;
6987;SDS011;3534;49.960;8.018;2023-05-07T13:37:31;2.10;;;1.77;;
6987;SDS011;3534;49.960;8.018;2023-05-07T13:39:57;2.90;;;2.40;;
6987;SDS011;3534;49.960;8.018;2023-05-07T13:42:24;5.45;;;2.00;;
6987;SDS011;3534;49.960;8.018;2023-05-07T13:44:51;2.00;;;1.80;;
6987;SDS011;3534;49.960;8.018;2023-05-07T13:47:17;3.88;;;1.73;;
6987;SDS011;3534;49.960;8.018;2023-05-07T13:49:46;2.03;;;1.90;;
6987;SDS011;3534;49.960;8.018;2023-05-07T13:52:14;6.35;;;1.85;;
6987;SDS011;3534;49.960;8.018;2023-05-07T13:54:41;3.03;;;1.70;;
6987;SDS011;3534;49.960;8.018;2023-05-07T13:57:08;2.28;;;2.03;;
6987;SDS011;3534;49.960;8.018;2023-05-07T13:59:34;2.60;;;1.60;;
6987;SDS011;3534;49.960;8.018;2023-05-07T14:02:01;4.03;;;1.42;;
6987;SDS011;3534;49.960;8.018;2023-05-07T14:04:28;1.60;;;1.20;;
6987;SDS011;3534;49.960;8.018;2023-05-07T14:06:56;3.00;;;1.60;;
6987;SDS011;3534;49.960;8.018;2023-05-07T14:09:22;1.15;;;1.05;;
6987;SDS011;3534;49.960;8.018;2023-05-07T14:11:49;4.07;;;1.40;;
6987;SDS011;3534;49.960;8.018;2023-05-07T14:14:16;1.45;;;1.35;;
6987;SDS011;3534;49.960;8.018;2023-05-07T14:16:43;1.98;;;1.40;;
6987;SDS011;3534;49.960;8.018;2023-05-07T14:19:09;2.03;;;1.30;;
6987;SDS011;3534;49.960;8.018;2023-05-07T14:21:36;4.70;;;1.52;;
6987;SDS011;3534;49.960;8.018;2023-05-07T14:24:05;4.00;;;1.67;;
6987;SDS011;3534;49.960;8.018;2023-05-07T14:26:33;2.13;;;1.33;;
6987;SDS011;3534;49.960;8.018;2023-05-07T14:28:59;1.73;;;1.52;;
6987;SDS011;3534;49.960;8.018;2023-05-07T14:31:26;3.17;;;1.52;;
6987;SDS011;3534;49.960;8.018;2023-05-07T14:33:53;1.60;;;1.50;;
6987;SDS011;3534;49.960;8.018;2023-05-07T14:36:20;3.13;;;1.45;;
6987;SDS011;3534;49.960;8.018;2023-05-07T14:38:47;1.58;;;1.38;;
6987;SDS011;3534;49.960;8.018;2023-05-07T14:41:16;2.38;;;1.40;;
6987;SDS011;3534;49.960;8.018;2023-05-07T14:43:42;1.98;;;1.40;;
6987;SDS011;3534;49.960;8.018;2023-05-07T14:46:14;2.40;;;1.40;;
6987;SDS011;3534;49.960;8.018;2023-05-07T14:48:41;1.77;;;1.40;;
6987;SDS011;3534;49.960;8.018;2023-05-07T14:51:09;2.40;;;1.43;;
6987;SDS011;3534;49.960;8.018;2023-05-07T14:53:36;2.10;;;1.30;;
6987;SDS011;3534;49.960;8.018;2023-05-07T14:56:03;2.43;;;1.40;;
6987;SDS011;3534;49.960;8.018;2023-05-07T14:58:31;1.93;;;1.47;;
6987;SDS011;3534;49.960;8.018;2023-05-07T15:00:58;2.03;;;1.47;;
6987;SDS011;3534;49.960;8.018;2023-05-07T15:03:25;1.33;;;1.23;;
6987;SDS011;3534;49.960;8.018;2023-05-07T15:05:52;3.10;;;1.43;;
6987;SDS011;3534;49.960;8.018;2023-05-07T15:08:18;1.73;;;1.63;;
6987;SDS011;3534;49.960;8.018;2023-05-07T15:10:45;1.67;;;1.13;;
6987;SDS011;3534;49.960;8.018;2023-05-07T15:13:12;2.60;;;1.43;;
6987;SDS011;3534;49.960;8.018;2023-05-07T15:15:40;1.50;;;1.17;;
6987;SDS011;3534;49.960;8.018;2023-05-07T15:18:07;1.90;;;1.40;;
6987;SDS011;3534;49.960;8.018;2023-05-07T15:20:35;3.63;;;1.53;;
6987;SDS011;3534;49.960;8.018;2023-05-07T15:23:02;5.43;;;1.60;;
6987;SDS011;3534;49.960;8.018;2023-05-07T15:25:30;10.40;;;1.70;;
6987;SDS011;3534;49.960;8.018;2023-05-07T15:27:58;2.20;;;1.43;;
6987;SDS011;3534;49.960;8.018;2023-05-07T15:30:25;1.30;;;1.20;;